This is the latest recevied weather packets stored in our database for station/object KC0QBU-13. If no packets are shown the sender has not sent any weather packets the latest 10 day(s).
| Time | Temp. | Humidity | Pressure | Rain* | Wind** | Luminosity | Snow |
|---|---|---|---|---|---|---|---|
| 1777638904 | 6.11° C | 76% | 1019.8 hPa | 0 mm | - | - | - |
| 1777637404 | 5° C | 80% | 1019.9 hPa | 0 mm | - | - | - |
| 1777636204 | 4.44° C | 82% | 1019.7 hPa | 0 mm | - | - | - |
| 1777632003 | 4.44° C | 79% | 1019.5 hPa | 0 mm | - | - | - |
| 1777630503 | 5° C | 79% | 1019.6 hPa | 0 mm | - | - | - |
| 1777629603 | 5° C | 78% | 1019.6 hPa | 0 mm | - | - | - |
| 1777628704 | 5° C | 78% | 1019.5 hPa | 0 mm | - | - | - |
| 1777627803 | 5.56° C | 76% | 1019.5 hPa | 0 mm | - | - | - |
| 1777627503 | 5.56° C | 76% | 1019.4 hPa | 0 mm | - | - | - |
| 1777625403 | 5.56° C | 75% | 1019.5 hPa | 0 mm | - | - | - |
| 1777620603 | 6.67° C | 74% | 1020.2 hPa | 0 mm | - | - | - |
| 1777619703 | 7.22° C | 72% | 1020.1 hPa | 0 mm | - | - | - |
| 1777619103 | 7.22° C | 72% | 1020.2 hPa | 0 mm | - | - | - |
| 1777615203 | 8.33° C | 67% | 1020.4 hPa | 0 mm | - | - | - |
| 1777612503 | 10° C | 62% | 1020 hPa | 0 mm | - | - | - |
| 1777610403 | 10.56° C | 59% | 1019.6 hPa | 0 mm | - | - | - |
| 1777609804 | 11.11° C | 58% | 1019.8 hPa | 0 mm | - | - | - |
| 1777608004 | 11.11° C | 57% | 1019.6 hPa | 0 mm | - | - | - |
| 1777607103 | 11.67° C | 56% | 1019.6 hPa | 0 mm | - | - | - |
| 1777604103 | 12.22° C | 57% | 1019.2 hPa | 0 mm | - | - | - |
| 1777602903 | 12.78° C | 55% | 1018.7 hPa | 0 mm | - | - | - |
| 1777602303 | 12.78° C | 54% | 1018.5 hPa | 0 mm | - | - | - |
| 1777601704 | 13.33° C | 54% | 1018.5 hPa | 0 mm | - | - | - |
| 1777599904 | 13.89° C | 54% | 1018.1 hPa | 0 mm | - | - | - |
| 1777597803 | 14.44° C | 53% | 1017.7 hPa | 0 mm | - | - | - |
* Rain latest hour (hover to see other rain measurements)
** Current wind speed in m/s (hover to see current wind gust speed)